createdAt,value
2022-10-29T00:00:30.420Z,98.61
2022-10-29T00:01:30.425Z,98.61
2022-10-29T00:02:30.429Z,98.61
2022-10-29T00:03:30.369Z,98.61
2022-10-29T00:04:30.337Z,98.61
2022-10-29T00:05:30.340Z,98.71
2022-10-29T00:06:30.367Z,98.82
2022-10-29T00:07:30.352Z,98.82
2022-10-29T00:08:30.349Z,98.82
2022-10-29T00:09:30.291Z,98.82
2022-10-29T00:10:30.280Z,98.82
2022-10-29T00:11:30.310Z,98.82
2022-10-29T00:12:30.293Z,98.82
2022-10-29T00:13:30.251Z,98.92
2022-10-29T00:14:30.235Z,98.92
2022-10-29T00:15:30.262Z,98.96
2022-10-29T00:16:30.252Z,99.07
2022-10-29T00:17:30.210Z,99.16
2022-10-29T00:18:30.242Z,99.27
2022-10-29T00:19:30.183Z,99.37
2022-10-29T00:20:30.162Z,99.47
2022-10-29T00:21:30.173Z,99.47
2022-10-29T00:22:30.194Z,99.47
2022-10-29T00:23:30.139Z,99.47
2022-10-29T00:24:30.177Z,99.57
2022-10-29T00:25:30.123Z,99.57
2022-10-29T00:26:30.108Z,99.67
2022-10-29T00:27:30.104Z,99.67
2022-10-29T00:28:30.087Z,99.67
2022-10-29T00:29:30.148Z,99.77
2022-10-29T00:30:30.057Z,99.77
2022-10-29T00:31:30.131Z,99.77
2022-10-29T00:32:30.035Z,99.77
2022-10-29T00:33:30.058Z,99.77
2022-10-29T00:34:30.020Z,99.77
2022-10-29T00:35:30.100Z,99.77
2022-10-29T00:36:29.990Z,99.77
2022-10-29T00:37:29.990Z,99.87
2022-10-29T00:38:29.967Z,99.87
2022-10-29T00:39:30.008Z,99.87
2022-10-29T00:40:29.954Z,99.87
2022-10-29T00:41:29.999Z,99.87
2022-10-29T00:42:29.940Z,99.77
2022-10-29T00:43:29.927Z,99.77
2022-10-29T00:44:29.910Z,99.67
2022-10-29T00:45:29.901Z,99.57
2022-10-29T00:46:29.977Z,99.57
2022-10-29T00:47:29.941Z,99.57
2022-10-29T00:48:29.873Z,99.47
2022-10-29T00:49:29.881Z,99.47
2022-10-29T00:50:29.924Z,99.57
2022-10-29T00:51:29.887Z,99.57
2022-10-29T00:52:29.859Z,99.57
2022-10-29T00:53:29.836Z,99.57
2022-10-29T00:54:29.822Z,99.57
2022-10-29T00:55:29.792Z,99.57
2022-10-29T00:56:29.791Z,99.47
2022-10-29T00:57:29.812Z,99.47
2022-10-29T00:58:29.769Z,99.37
2022-10-29T00:59:29.754Z,99.37
2022-10-29T01:00:29.742Z,99.47
2022-10-29T01:01:29.797Z,99.37
2022-10-29T01:02:30.121Z,99.37
2022-10-29T01:03:29.705Z,99.37
2022-10-29T01:04:29.701Z,99.37
2022-10-29T01:05:29.687Z,99.37
2022-10-29T01:06:29.705Z,99.47
2022-10-29T01:07:29.655Z,99.47
2022-10-29T01:08:29.685Z,99.57
2022-10-29T01:09:29.647Z,99.57
2022-10-29T01:10:29.637Z,99.57
2022-10-29T01:11:29.627Z,99.57
2022-10-29T01:12:29.611Z,99.57
2022-10-29T01:13:29.608Z,99.57
2022-10-29T01:14:29.588Z,99.67
2022-10-29T01:15:29.577Z,99.67
2022-10-29T01:16:29.611Z,99.67
2022-10-29T01:17:29.552Z,99.67
2022-10-29T01:18:29.761Z,99.67
2022-10-29T01:19:29.603Z,99.82
2022-10-29T01:20:29.557Z,99.82
2022-10-29T01:21:29.538Z,99.82
2022-10-29T01:22:29.519Z,99.82
2022-10-29T01:23:29.496Z,99.72
2022-10-29T01:24:29.491Z,99.72
2022-10-29T01:25:29.473Z,99.62
2022-10-29T01:26:29.469Z,99.52
2022-10-29T01:27:29.445Z,99.52
2022-10-29T01:29:29.445Z,99.52
2022-10-29T01:30:29.423Z,99.41
2022-10-29T01:31:29.405Z,99.32
2022-10-29T01:32:29.470Z,99.11
2022-10-29T01:33:29.384Z,99.21
2022-10-29T01:34:29.422Z,99.11
2022-10-29T01:35:29.375Z,99.01
2022-10-29T01:36:29.346Z,98.91
2022-10-29T01:37:29.354Z,98.81
2022-10-29T01:38:29.384Z,98.81
2022-10-29T01:39:29.367Z,98.71
2022-10-29T01:40:29.337Z,98.71
2022-10-29T01:41:29.295Z,98.71
2022-10-29T01:42:29.306Z,98.71
2022-10-29T01:43:29.276Z,98.71
2022-10-29T01:44:29.317Z,98.81
2022-10-29T01:45:29.255Z,98.81
2022-10-29T01:46:29.249Z,98.81
2022-10-29T01:47:29.237Z,98.81
2022-10-29T01:48:33.019Z,98.61
2022-10-29T01:49:29.217Z,98.35
2022-10-29T01:50:29.288Z,98.14
2022-10-29T01:51:29.208Z,97.94
2022-10-29T01:52:29.280Z,97.94
2022-10-29T01:53:29.241Z,97.24
2022-10-29T01:54:29.186Z,97.34
2022-10-29T01:55:29.221Z,96.93
2022-10-29T01:56:29.206Z,97.03
2022-10-29T01:57:29.176Z,96.83
2022-10-29T01:58:29.121Z,96.83
2022-10-29T01:59:36.330Z,96.83
2022-10-29T02:00:30.191Z,96.83
2022-10-29T02:01:29.232Z,96.53
2022-10-29T02:02:29.070Z,96.42
2022-10-29T02:03:29.062Z,96.02
2022-10-29T02:04:29.068Z,95.92
2022-10-29T02:05:29.083Z,95.86
2022-10-29T02:06:29.053Z,95.97
2022-10-29T02:07:29.043Z,95.97
2022-10-29T02:08:29.031Z,96.27
2022-10-29T02:09:29.002Z,96.27
2022-10-29T02:10:28.991Z,96.07
2022-10-29T02:11:29.024Z,96.07
2022-10-29T02:12:28.974Z,96.27
2022-10-29T02:13:28.957Z,96.37
2022-10-29T02:14:28.954Z,96.47
2022-10-29T02:15:29.029Z,96.57
2022-10-29T02:16:28.931Z,96.67
2022-10-29T02:17:28.916Z,96.78
2022-10-29T02:18:28.903Z,96.88
2022-10-29T02:19:28.897Z,96.92
2022-10-29T02:20:28.883Z,97.08
2022-10-29T02:21:28.966Z,97.02
2022-10-29T02:22:28.868Z,97.02
2022-10-29T02:23:28.846Z,97.13
2022-10-29T02:24:28.890Z,97.33
2022-10-29T02:25:28.960Z,97.13
2022-10-29T02:26:28.846Z,97.13
2022-10-29T02:27:28.831Z,97.23
2022-10-29T02:28:28.790Z,97.33
2022-10-29T02:29:28.789Z,97.43
2022-10-29T02:30:28.780Z,97.53
2022-10-29T02:31:30.557Z,97.53
2022-10-29T02:32:28.758Z,97.73
2022-10-29T02:33:28.750Z,97.73
2022-10-29T02:34:28.793Z,97.73
2022-10-29T02:35:28.722Z,97.83
2022-10-29T02:36:28.714Z,97.94
2022-10-29T02:37:28.752Z,98.03
2022-10-29T02:38:28.687Z,98.03
2022-10-29T02:39:28.683Z,98.14
2022-10-29T02:40:28.681Z,98.24
2022-10-29T02:41:28.663Z,98.34
2022-10-29T02:42:28.653Z,98.34
2022-10-29T02:43:28.674Z,98.34
2022-10-29T02:44:28.622Z,98.44
2022-10-29T02:45:28.624Z,98.44
2022-10-29T02:46:28.614Z,98.54
2022-10-29T02:47:28.599Z,98.34
2022-10-29T02:48:28.585Z,98.34
2022-10-29T02:49:28.611Z,98.34
2022-10-29T02:50:28.575Z,98.34
2022-10-29T02:51:28.546Z,98.24
2022-10-29T02:52:28.556Z,98.24
2022-10-29T02:53:28.524Z,98.14
2022-10-29T02:54:28.526Z,98.03
2022-10-29T02:55:28.565Z,98.03
2022-10-29T02:56:28.505Z,98.03
2022-10-29T02:57:28.497Z,98.03
2022-10-29T02:58:28.490Z,98.24
2022-10-29T02:59:28.467Z,98.44
2022-10-29T03:00:28.467Z,98.54
2022-10-29T03:01:28.635Z,98.34
2022-10-29T03:02:28.548Z,98.14
2022-10-29T03:03:28.438Z,98.03
2022-10-29T03:04:28.419Z,98.14
2022-10-29T03:05:28.415Z,98.14
2022-10-29T03:06:28.410Z,98.14
2022-10-29T03:07:28.417Z,98.14
2022-10-29T03:08:28.409Z,98.24
2022-10-29T03:09:28.366Z,98.14
2022-10-29T03:10:28.358Z,98.03
2022-10-29T03:11:28.350Z,98.14
2022-10-29T03:12:28.335Z,98.14
2022-10-29T03:13:28.415Z,98.18
2022-10-29T03:14:28.310Z,98.03
2022-10-29T03:15:28.320Z,98.18
2022-10-29T03:16:28.290Z,98.24
2022-10-29T03:17:28.277Z,98.28
2022-10-29T03:18:28.261Z,98.24
2022-10-29T03:19:28.293Z,98.28
2022-10-29T03:20:28.242Z,98.39
2022-10-29T03:21:28.225Z,98.49
2022-10-29T03:22:28.223Z,98.39
2022-10-29T03:23:28.214Z,98.28
2022-10-29T03:24:28.200Z,98.28
2022-10-29T03:25:28.235Z,98.39
2022-10-29T03:26:28.207Z,98.49
2022-10-29T03:27:28.187Z,98.49
2022-10-29T03:28:28.164Z,98.39
2022-10-29T03:29:28.251Z,98.39
2022-10-29T03:30:28.143Z,98.39
2022-10-29T03:31:28.177Z,98.28
2022-10-29T03:32:28.125Z,98.08
2022-10-29T03:33:28.174Z,97.98
2022-10-29T03:34:28.107Z,97.78
2022-10-29T03:35:28.130Z,97.78
2022-10-29T03:36:28.085Z,97.98
2022-10-29T03:37:28.117Z,97.98
2022-10-29T03:38:28.057Z,98.08
2022-10-29T03:39:28.049Z,97.98
2022-10-29T03:40:28.027Z,98.18
2022-10-29T03:41:28.101Z,98.18
2022-10-29T03:42:28.011Z,98.08
2022-10-29T03:43:28.034Z,97.83
2022-10-29T03:44:28.010Z,97.42
2022-10-29T03:45:27.981Z,97.02
2022-10-29T03:46:28.004Z,97.02
2022-10-29T03:47:27.948Z,96.91
2022-10-29T03:48:27.942Z,97.02
2022-10-29T03:49:27.969Z,97.02
2022-10-29T03:50:27.931Z,96.91
2022-10-29T03:51:27.930Z,97.11
2022-10-29T03:52:27.983Z,96.91
2022-10-29T03:53:27.894Z,96.71
2022-10-29T03:54:27.882Z,96.41
2022-10-29T03:55:27.920Z,96.30
2022-10-29T03:56:27.862Z,96.41
2022-10-29T03:57:27.869Z,96.55
2022-10-29T03:58:27.842Z,96.55
2022-10-29T03:59:27.830Z,96.55
2022-10-29T04:00:27.812Z,96.66
2022-10-29T04:01:27.951Z,96.25
2022-10-29T04:02:27.931Z,96.35
2022-10-29T04:03:27.776Z,96.35
2022-10-29T04:04:27.779Z,96.55
2022-10-29T04:05:27.779Z,96.86
2022-10-29T04:06:27.745Z,96.86
2022-10-29T04:07:27.806Z,96.90
2022-10-29T04:08:27.725Z,97.00
2022-10-29T04:09:27.717Z,97.00
2022-10-29T04:10:27.720Z,97.00
2022-10-29T04:11:27.698Z,97.00
2022-10-29T04:12:27.705Z,97.20
2022-10-29T04:13:27.672Z,97.20
2022-10-29T04:14:27.734Z,97.41
2022-10-29T04:15:27.660Z,97.61
2022-10-29T04:16:27.667Z,97.61
2022-10-29T04:17:27.656Z,97.41
2022-10-29T04:18:27.632Z,97.51
2022-10-29T04:19:27.596Z,97.51
2022-10-29T04:20:43.382Z,97.31
2022-10-29T04:23:25.371Z,97.31
2022-10-29T04:28:44.342Z,97.45
2022-10-29T04:29:28.505Z,97.56
2022-10-29T04:30:27.576Z,97.66
2022-10-29T04:31:27.472Z,97.66
2022-10-29T04:32:27.476Z,97.66
2022-10-29T04:33:27.453Z,97.76
2022-10-29T04:34:27.491Z,97.56
2022-10-29T04:35:27.444Z,97.45
2022-10-29T04:36:27.437Z,97.66
2022-10-29T04:37:27.413Z,97.56
2022-10-29T04:38:27.403Z,97.35
2022-10-29T04:39:27.423Z,97.15
2022-10-29T04:40:27.427Z,97.25
2022-10-29T04:41:27.374Z,97.25
2022-10-29T04:42:27.373Z,97.30
2022-10-29T04:43:27.358Z,97.60
2022-10-29T04:44:27.346Z,97.50
2022-10-29T04:45:27.335Z,97.60
2022-10-29T04:46:27.364Z,97.71
2022-10-29T04:47:27.318Z,97.91
2022-10-29T04:48:27.306Z,97.71
2022-10-29T04:49:27.407Z,97.60
2022-10-29T04:50:27.276Z,97.71
2022-10-29T04:51:27.276Z,97.71
2022-10-29T04:52:27.317Z,97.71
2022-10-29T04:53:27.250Z,97.80
2022-10-29T04:54:27.270Z,97.80
2022-10-29T04:55:27.264Z,97.80
2022-10-29T04:56:27.220Z,97.91
2022-10-29T04:57:27.235Z,97.80
2022-10-29T04:58:27.297Z,97.80
2022-10-29T04:59:27.197Z,97.80
2022-10-29T05:00:27.191Z,97.71
2022-10-29T05:01:27.361Z,97.75
2022-10-29T05:02:27.170Z,97.75
2022-10-29T05:03:27.187Z,97.85
2022-10-29T05:04:27.138Z,98.05
2022-10-29T05:05:27.134Z,97.96
2022-10-29T05:06:27.122Z,98.05
2022-10-29T05:07:27.116Z,97.96
2022-10-29T05:08:27.102Z,97.96
2022-10-29T05:09:27.115Z,98.05
2022-10-29T05:10:27.083Z,98.05
2022-10-29T05:11:27.060Z,98.16
2022-10-29T05:12:27.054Z,98.16
2022-10-29T05:13:27.068Z,98.16
2022-10-29T05:14:27.022Z,98.56
2022-10-29T05:15:27.077Z,98.46
2022-10-29T05:16:27.016Z,98.36
2022-10-29T05:17:27.250Z,98.36
2022-10-29T05:18:27.030Z,98.56
2022-10-29T05:19:26.985Z,98.66
2022-10-29T05:20:27.050Z,98.56
2022-10-29T05:21:26.942Z,98.56
2022-10-29T05:22:26.943Z,98.66
2022-10-29T05:23:26.924Z,98.86
2022-10-29T05:24:26.930Z,98.66
2022-10-29T05:25:26.905Z,98.46
2022-10-29T05:26:26.965Z,98.66
2022-10-29T05:27:26.887Z,98.56
2022-10-29T05:28:26.880Z,98.50
2022-10-29T05:29:26.867Z,98.61
2022-10-29T05:30:26.860Z,98.61
2022-10-29T05:31:26.844Z,98.50
2022-10-29T05:32:26.892Z,98.61
2022-10-29T05:33:26.833Z,98.61
2022-10-29T05:34:26.833Z,98.50
2022-10-29T05:35:26.798Z,98.71
2022-10-29T05:36:26.813Z,98.50
2022-10-29T05:37:26.816Z,98.50
2022-10-29T05:38:26.801Z,98.61
2022-10-29T05:39:26.759Z,98.81
2022-10-29T05:40:26.750Z,98.81
2022-10-29T05:41:26.744Z,98.81
2022-10-29T05:42:26.818Z,98.71
2022-10-29T05:43:26.719Z,98.71
2022-10-29T05:44:26.740Z,98.61
2022-10-29T05:45:26.701Z,98.81
2022-10-29T05:46:26.693Z,99.02
2022-10-29T05:47:26.672Z,98.91
2022-10-29T05:48:26.681Z,98.71
2022-10-29T05:49:26.675Z,98.71
2022-10-29T05:50:26.689Z,98.61
2022-10-29T05:51:26.643Z,98.81
2022-10-29T05:52:26.648Z,98.86
2022-10-29T05:53:26.622Z,98.96
2022-10-29T05:54:26.614Z,99.11
2022-10-29T05:55:26.593Z,99.16
2022-10-29T05:56:26.625Z,99.06
2022-10-29T05:57:26.565Z,99.16
2022-10-29T05:58:26.575Z,99.16
2022-10-29T05:59:31.109Z,99.16
2022-10-29T06:00:27.707Z,99.27
2022-10-29T06:01:26.628Z,99.27
2022-10-29T06:02:26.650Z,99.37
2022-10-29T06:03:26.506Z,99.47
2022-10-29T06:04:26.493Z,99.47
2022-10-29T06:05:26.475Z,99.57
2022-10-29T06:06:26.503Z,99.67
2022-10-29T06:07:26.463Z,99.67
2022-10-29T06:08:26.503Z,99.98
2022-10-29T06:09:26.479Z,99.98
2022-10-29T06:10:26.457Z,99.88
2022-10-29T06:11:26.417Z,99.77
2022-10-29T06:12:29.976Z,99.88
2022-10-29T06:13:26.388Z,99.88
2022-10-29T06:14:26.432Z,99.99
2022-10-29T06:15:26.382Z,99.98
2022-10-29T06:16:26.419Z,99.88
2022-10-29T06:17:26.383Z,99.77
2022-10-29T06:18:26.368Z,99.57
2022-10-29T06:19:26.379Z,99.57
2022-10-29T06:20:26.391Z,99.57
2022-10-29T06:21:26.313Z,99.67
2022-10-29T06:22:26.308Z,99.57
2022-10-29T06:23:26.291Z,99.67
2022-10-29T06:24:26.319Z,99.57
2022-10-29T06:25:26.262Z,99.67
2022-10-29T06:26:26.312Z,99.77
2022-10-29T06:27:26.273Z,99.88
2022-10-29T06:28:29.151Z,99.88
2022-10-29T06:29:27.217Z,99.88
2022-10-29T06:30:26.292Z,99.88
2022-10-29T06:31:26.205Z,99.88
2022-10-29T06:32:26.204Z,99.88
2022-10-29T06:33:26.171Z,99.98
2022-10-29T06:34:26.175Z,99.88
2022-10-29T06:35:26.202Z,99.98
2022-10-29T06:36:26.165Z,99.99
2022-10-29T06:37:26.136Z,99.99
2022-10-29T06:38:26.157Z,99.99
2022-10-29T06:39:26.118Z,99.98
2022-10-29T06:40:26.196Z,99.98
2022-10-29T06:41:26.121Z,99.88
2022-10-29T06:42:26.088Z,99.88
2022-10-29T06:43:26.091Z,99.99
2022-10-29T06:44:26.088Z,99.99
2022-10-29T06:45:26.046Z,99.99
2022-10-29T06:46:26.080Z,99.99
2022-10-29T06:47:26.038Z,99.99
2022-10-29T06:48:26.037Z,99.99
2022-10-29T06:49:26.005Z,99.99
2022-10-29T06:50:26.088Z,99.99
2022-10-29T06:51:25.998Z,99.99
2022-10-29T06:52:25.967Z,99.99
2022-10-29T06:53:25.973Z,99.99
2022-10-29T06:54:25.966Z,99.99
2022-10-29T06:55:25.969Z,99.99
2022-10-29T06:56:25.954Z,99.99
2022-10-29T06:57:25.929Z,99.99
2022-10-29T06:58:25.937Z,99.99
2022-10-29T06:59:25.917Z,99.99
2022-10-29T07:00:25.967Z,99.99
2022-10-29T07:01:27.753Z,99.99
2022-10-29T07:02:26.869Z,99.99
2022-10-29T07:03:25.859Z,99.99
2022-10-29T07:04:25.890Z,99.99
2022-10-29T07:05:25.844Z,99.99
2022-10-29T07:06:25.871Z,99.99
2022-10-29T07:07:25.839Z,99.99
2022-10-29T07:08:25.800Z,99.99
2022-10-29T07:09:25.811Z,99.99
2022-10-29T07:10:25.851Z,99.99
2022-10-29T07:11:25.784Z,99.99
2022-10-29T07:12:25.848Z,99.99
2022-10-29T07:13:25.911Z,99.99
2022-10-29T07:14:25.789Z,99.99
2022-10-29T07:15:27.659Z,99.99
2022-10-29T07:16:25.716Z,99.99
2022-10-29T07:17:25.735Z,99.99
2022-10-29T07:18:25.713Z,99.99
2022-10-29T07:19:25.716Z,99.99
2022-10-29T07:20:25.734Z,99.99
2022-10-29T07:21:25.680Z,99.99
2022-10-29T07:22:25.672Z,99.99
2022-10-29T07:23:25.757Z,99.99
2022-10-29T07:24:25.636Z,99.99
2022-10-29T07:25:25.627Z,99.99
2022-10-29T07:26:25.617Z,99.99
2022-10-29T07:27:25.646Z,99.99
2022-10-29T07:28:25.639Z,99.99
2022-10-29T07:29:25.617Z,99.99
2022-10-29T07:30:25.577Z,99.99
2022-10-29T07:31:25.557Z,99.99
2022-10-29T07:32:25.549Z,99.99
2022-10-29T07:33:25.597Z,99.99
2022-10-29T07:34:25.536Z,99.99
2022-10-29T07:35:25.541Z,99.99
2022-10-29T07:36:25.521Z,99.99
2022-10-29T07:37:25.508Z,99.99
2022-10-29T07:38:25.478Z,99.99
2022-10-29T07:39:25.525Z,99.99
2022-10-29T07:40:25.484Z,99.99
2022-10-29T07:41:25.492Z,99.99
2022-10-29T07:42:25.440Z,99.99
2022-10-29T07:43:25.422Z,99.99
2022-10-29T07:44:25.453Z,99.99
2022-10-29T07:45:25.398Z,99.99
2022-10-29T07:46:25.455Z,99.99
2022-10-29T07:47:25.384Z,99.99
2022-10-29T07:48:25.385Z,99.99
2022-10-29T07:49:25.377Z,99.99
2022-10-29T07:50:25.362Z,99.99
2022-10-29T07:51:25.331Z,99.99
2022-10-29T07:52:25.376Z,99.99
2022-10-29T07:53:25.319Z,99.99
2022-10-29T07:54:25.317Z,99.99
2022-10-29T07:55:25.345Z,99.99
2022-10-29T07:56:25.296Z,99.99
2022-10-29T07:57:25.276Z,99.99
2022-10-29T07:58:25.317Z,99.99
2022-10-29T07:59:25.263Z,99.99
2022-10-29T08:00:25.246Z,99.99
2022-10-29T08:01:25.313Z,99.99
2022-10-29T08:02:25.258Z,99.99
2022-10-29T08:03:25.241Z,99.99
2022-10-29T08:04:25.228Z,99.99
2022-10-29T08:05:25.189Z,99.99
2022-10-29T08:06:25.198Z,99.99
2022-10-29T08:07:25.165Z,99.93
2022-10-29T08:08:25.202Z,99.93
2022-10-29T08:09:25.144Z,99.99
2022-10-29T08:10:25.191Z,99.93
2022-10-29T08:11:25.140Z,99.93
2022-10-29T08:12:25.134Z,99.93
2022-10-29T08:13:25.127Z,99.83
2022-10-29T08:14:25.093Z,99.83
2022-10-29T08:15:25.088Z,99.73
2022-10-29T08:16:25.135Z,99.73
2022-10-29T08:17:25.062Z,99.63
2022-10-29T08:18:25.073Z,99.52
2022-10-29T08:19:25.042Z,99.42
2022-10-29T08:20:25.043Z,99.52
2022-10-29T08:21:25.032Z,99.42
2022-10-29T08:22:25.032Z,99.32
2022-10-29T08:23:25.002Z,99.38
2022-10-29T08:24:24.980Z,99.11
2022-10-29T08:25:25.003Z,99.11
2022-10-29T08:26:25.014Z,99.07
2022-10-29T08:27:24.951Z,99.07
2022-10-29T08:28:25.828Z,99.07
2022-10-29T08:29:24.943Z,99.17
2022-10-29T08:30:24.925Z,99.27
2022-10-29T08:31:24.913Z,99.17
2022-10-29T08:32:24.947Z,99.17
2022-10-29T08:33:24.945Z,99.07
2022-10-29T08:34:24.883Z,98.97
2022-10-29T08:35:24.899Z,98.86
2022-10-29T08:36:24.886Z,98.86
2022-10-29T08:37:24.846Z,98.56
2022-10-29T08:38:24.874Z,98.46
2022-10-29T08:39:24.826Z,98.36
2022-10-29T08:40:24.829Z,98.26
2022-10-29T08:41:24.819Z,98.36
2022-10-29T08:42:24.865Z,98.56
2022-10-29T08:43:25.893Z,98.56
2022-10-29T08:44:24.796Z,98.56
2022-10-29T08:45:24.799Z,98.26
2022-10-29T08:46:24.766Z,98.16
2022-10-29T08:47:24.735Z,98.05
2022-10-29T08:48:24.756Z,98.05
2022-10-29T08:49:24.764Z,97.96
2022-10-29T08:50:24.761Z,98.01
2022-10-29T08:51:24.733Z,97.85
2022-10-29T08:52:24.688Z,97.80
2022-10-29T08:53:26.716Z,97.80
2022-10-29T08:54:30.956Z,97.80
2022-10-29T08:55:25.696Z,97.80
2022-10-29T08:56:24.668Z,97.55
2022-10-29T08:57:24.617Z,97.60
2022-10-29T08:58:24.670Z,97.80
2022-10-29T08:59:24.683Z,97.80
2022-10-29T09:00:24.677Z,97.80
2022-10-29T09:01:24.737Z,97.50
2022-10-29T09:02:24.675Z,97.30
2022-10-29T09:03:24.575Z,97.20
2022-10-29T09:04:24.563Z,97.09
2022-10-29T09:05:24.589Z,96.89
2022-10-29T09:06:24.565Z,96.89
2022-10-29T09:07:24.534Z,97.20
2022-10-29T09:08:24.503Z,97.30
2022-10-29T09:09:24.491Z,97.20
2022-10-29T09:10:24.506Z,97.30
2022-10-29T09:11:24.483Z,97.30
2022-10-29T09:12:24.513Z,97.05
2022-10-29T09:13:24.469Z,97.15
2022-10-29T09:14:24.447Z,96.54
2022-10-29T09:15:24.422Z,96.54
2022-10-29T09:16:24.443Z,96.03
2022-10-29T09:17:24.428Z,95.73
2022-10-29T09:18:24.433Z,95.73
2022-10-29T09:19:24.497Z,95.53
2022-10-29T09:20:24.399Z,95.22
2022-10-29T09:21:24.365Z,94.61
2022-10-29T09:22:24.366Z,95.12
2022-10-29T09:23:24.386Z,94.98
2022-10-29T09:24:24.339Z,94.17
2022-10-29T09:25:24.337Z,94.67
2022-10-29T09:26:24.329Z,94.87
2022-10-29T09:27:24.322Z,94.06
2022-10-29T09:28:24.305Z,94.06
2022-10-29T09:29:24.339Z,92.94
2022-10-29T09:30:24.310Z,92.84
2022-10-29T09:31:24.339Z,93.15
2022-10-29T09:32:24.318Z,93.05
2022-10-29T09:33:24.250Z,92.74
2022-10-29T09:34:24.229Z,93.15
2022-10-29T09:35:24.260Z,93.76
2022-10-29T09:36:24.232Z,93.45
2022-10-29T09:37:24.205Z,93.15
2022-10-29T09:38:24.192Z,92.94
2022-10-29T09:39:24.660Z,93.55
2022-10-29T09:40:24.200Z,93.96
2022-10-29T09:41:24.234Z,92.64
2022-10-29T09:42:24.237Z,91.99
2022-10-29T09:43:24.166Z,92.29
2022-10-29T09:44:24.165Z,92.19
2022-10-29T09:45:24.122Z,92.19
2022-10-29T09:46:24.289Z,91.78
2022-10-29T09:47:24.161Z,91.78
2022-10-29T09:48:24.082Z,91.38
2022-10-29T09:49:24.073Z,92.19
2022-10-29T09:50:24.132Z,92.09
2022-10-29T09:51:24.885Z,91.78
2022-10-29T09:52:24.064Z,91.68
2022-10-29T09:53:24.077Z,91.48
2022-10-29T09:54:24.040Z,91.34
2022-10-29T09:55:24.008Z,90.73
2022-10-29T09:56:24.017Z,91.13
2022-10-29T09:57:24.018Z,90.93
2022-10-29T09:58:24.012Z,90.93
2022-10-29T09:59:24.006Z,91.03
2022-10-29T10:00:23.978Z,91.34
2022-10-29T10:01:24.036Z,91.34
2022-10-29T10:02:23.985Z,91.44
2022-10-29T10:03:23.926Z,91.74
2022-10-29T10:04:23.951Z,90.93
2022-10-29T10:05:23.905Z,90.83
2022-10-29T10:06:23.900Z,89.31
2022-10-29T10:07:23.889Z,89.41
2022-10-29T10:08:23.916Z,89.21
2022-10-29T10:09:23.906Z,89.72
2022-10-29T10:10:23.977Z,90.53
2022-10-29T10:11:23.851Z,89.72
2022-10-29T10:12:23.879Z,89.72
2022-10-29T10:13:26.220Z,89.92
2022-10-29T10:14:23.806Z,89.51
2022-10-29T10:15:23.848Z,90.02
2022-10-29T10:16:23.780Z,90.22
2022-10-29T10:17:23.772Z,90.42
2022-10-29T10:18:23.782Z,90.28
2022-10-29T10:19:23.792Z,90.69
2022-10-29T10:20:23.767Z,89.57
2022-10-29T10:21:23.749Z,89.31
2022-10-29T10:22:23.746Z,89.06
2022-10-29T10:23:23.722Z,89.17
2022-10-29T10:24:23.771Z,88.86
2022-10-29T10:25:23.808Z,88.35
2022-10-29T10:26:23.688Z,88.35
2022-10-29T10:27:23.671Z,88.15
2022-10-29T10:28:23.705Z,87.65
2022-10-29T10:29:23.701Z,88.05
2022-10-29T10:30:23.653Z,87.54
2022-10-29T10:31:23.653Z,87.04
2022-10-29T10:32:23.647Z,86.53
2022-10-29T10:34:23.705Z,87.24
2022-10-29T10:35:23.607Z,87.04
2022-10-29T10:36:23.582Z,88.35
2022-10-29T10:37:23.565Z,87.95
2022-10-29T10:38:23.573Z,88.35
2022-10-29T10:39:23.549Z,87.85
2022-10-29T10:40:23.607Z,87.74
2022-10-29T10:41:23.537Z,87.24
2022-10-29T10:42:23.596Z,87.54
2022-10-29T10:43:23.515Z,87.34
2022-10-29T10:44:23.500Z,88.25
2022-10-29T10:45:23.523Z,87.74
2022-10-29T10:46:23.483Z,87.54
2022-10-29T10:47:23.466Z,86.83
2022-10-29T10:48:23.547Z,87.34
2022-10-29T10:49:23.436Z,89.17
2022-10-29T10:50:23.419Z,87.65
2022-10-29T10:51:23.539Z,88.66
2022-10-29T10:52:23.407Z,86.94
2022-10-29T10:53:23.425Z,87.24
2022-10-29T10:54:23.448Z,87.34
2022-10-29T10:55:23.382Z,86.83
2022-10-29T10:56:23.428Z,86.63
2022-10-29T10:57:23.368Z,87.04
2022-10-29T10:58:23.350Z,85.93
2022-10-29T10:59:23.433Z,85.82
2022-10-29T11:00:23.372Z,84.91
2022-10-29T11:01:23.435Z,85.31
2022-10-29T11:02:23.423Z,86.02
2022-10-29T11:04:23.302Z,86.13
2022-10-29T11:05:23.276Z,86.43
2022-10-29T11:06:23.253Z,86.73
2022-10-29T11:07:23.264Z,86.13
2022-10-29T11:08:23.282Z,85.93
2022-10-29T11:09:23.324Z,85.72
2022-10-29T11:10:23.233Z,85.52
2022-10-29T11:11:23.249Z,85.72
2022-10-29T11:12:23.201Z,85.62
2022-10-29T11:13:23.245Z,86.83
2022-10-29T11:14:23.283Z,85.82
2022-10-29T11:15:23.196Z,86.43
2022-10-29T11:16:23.184Z,86.13
2022-10-29T11:17:23.147Z,86.13
2022-10-29T11:18:23.138Z,86.08
2022-10-29T11:19:23.164Z,86.33
2022-10-29T11:20:23.135Z,85.99
2022-10-29T11:21:23.108Z,86.49
2022-10-29T11:22:23.090Z,86.13
2022-10-29T11:23:23.119Z,84.67
2022-10-29T11:24:23.110Z,84.87
2022-10-29T11:25:23.058Z,84.06
2022-10-29T11:26:23.078Z,84.97
2022-10-29T11:27:23.038Z,84.16
2022-10-29T11:28:23.016Z,84.56
2022-10-29T11:29:23.066Z,84.27
2022-10-29T11:30:22.990Z,84.56
2022-10-29T11:31:22.989Z,84.16
2022-10-29T11:32:23.026Z,85.68
2022-10-29T11:33:22.971Z,84.47
2022-10-29T11:34:22.971Z,84.27
2022-10-29T11:35:22.943Z,84.36
2022-10-29T11:36:22.970Z,84.36
2022-10-29T11:37:22.930Z,83.65
2022-10-29T11:38:22.956Z,82.95
2022-10-29T11:39:22.926Z,84.77
2022-10-29T11:40:22.903Z,84.93
2022-10-29T11:41:22.893Z,85.74
2022-10-29T11:42:22.871Z,84.93
2022-10-29T11:43:22.891Z,84.33
2022-10-29T11:44:22.883Z,83.92
2022-10-29T11:45:22.866Z,83.11
2022-10-29T11:46:22.841Z,83.31
2022-10-29T11:47:22.832Z,81.90
2022-10-29T11:49:22.823Z,82.10
2022-10-29T11:50:22.794Z,81.18
2022-10-29T11:51:22.773Z,81.09
2022-10-29T11:52:22.786Z,80.98
2022-10-29T11:53:22.760Z,80.38
2022-10-29T11:54:22.785Z,80.38
2022-10-29T11:55:22.794Z,81.59
2022-10-29T11:56:22.721Z,81.90
2022-10-29T11:57:22.725Z,81.79
2022-10-29T11:58:22.703Z,80.58
2022-10-29T11:59:22.696Z,81.59
2022-10-29T12:00:22.726Z,80.58
2022-10-29T12:01:22.714Z,81.09
2022-10-29T12:02:22.679Z,80.38
2022-10-29T12:03:22.695Z,80.98
2022-10-29T12:04:24.290Z,81.18
2022-10-29T12:05:22.788Z,81.09
2022-10-29T12:06:22.619Z,82.20
2022-10-29T12:07:22.602Z,82.90
2022-10-29T12:08:22.601Z,81.79
2022-10-29T12:09:22.589Z,80.68
2022-10-29T12:10:22.578Z,82.30
2022-10-29T12:11:22.599Z,80.98
2022-10-29T12:12:22.548Z,80.68
2022-10-29T12:13:22.531Z,80.88
2022-10-29T12:14:22.534Z,80.78
2022-10-29T12:15:22.530Z,81.29
2022-10-29T12:16:22.532Z,81.79
2022-10-29T12:17:22.603Z,80.88
2022-10-29T12:18:22.515Z,81.90
2022-10-29T12:19:22.490Z,82.40
2022-10-29T12:20:25.164Z,81.90
2022-10-29T12:21:23.448Z,82.40
2022-10-29T12:22:22.446Z,81.79
2022-10-29T12:23:22.453Z,81.79
2022-10-29T12:24:22.484Z,82.20
2022-10-29T12:25:22.409Z,81.59
2022-10-29T12:26:22.393Z,81.90
2022-10-29T12:27:22.448Z,81.99
2022-10-29T12:28:22.405Z,81.90
2022-10-29T12:29:22.363Z,82.70
2022-10-29T12:30:22.351Z,82.40
2022-10-29T12:31:22.345Z,82.30
2022-10-29T12:32:22.326Z,82.30
2022-10-29T12:33:22.392Z,82.70
2022-10-29T12:34:22.307Z,82.81
2022-10-29T12:35:22.369Z,82.36
2022-10-29T12:36:22.293Z,81.96
2022-10-29T12:37:22.337Z,82.90
2022-10-29T12:38:22.309Z,82.60
2022-10-29T12:39:22.256Z,81.96
2022-10-29T12:40:22.236Z,82.56
2022-10-29T12:41:22.238Z,82.76
2022-10-29T12:42:22.225Z,81.55
2022-10-29T12:43:22.217Z,82.16
2022-10-29T12:44:22.238Z,81.96
2022-10-29T12:45:22.248Z,82.02
2022-10-29T12:46:22.213Z,82.42
2022-10-29T12:47:22.187Z,80.91
2022-10-29T12:48:22.167Z,81.11
2022-10-29T12:49:22.200Z,82.83
2022-10-29T12:50:22.179Z,81.82
2022-10-29T12:51:22.119Z,81.41
2022-10-29T12:52:22.152Z,80.20
2022-10-29T12:53:22.159Z,82.12
2022-10-29T12:54:22.089Z,81.41
2022-10-29T12:55:22.090Z,81.62
2022-10-29T12:56:22.105Z,80.91
2022-10-29T12:57:22.067Z,80.71
2022-10-29T12:58:22.042Z,80.71
2022-10-29T12:59:22.043Z,80.60
2022-10-29T13:00:22.024Z,80.60
2022-10-29T13:01:22.138Z,80.91
2022-10-29T13:02:22.339Z,79.49